createdAt,value
2023-05-08T00:01:21.132Z,100.00
2023-05-08T00:03:24.494Z,100.00
2023-05-08T00:05:27.375Z,100.00
2023-05-08T00:07:30.167Z,100.00
2023-05-08T00:09:32.948Z,100.00
2023-05-08T00:11:35.709Z,100.00
2023-05-08T00:13:38.474Z,100.00
2023-05-08T00:15:42.549Z,100.00
2023-05-08T00:17:45.415Z,100.00
2023-05-08T00:19:48.174Z,100.00
2023-05-08T00:21:50.997Z,100.00
2023-05-08T00:23:53.945Z,100.00
2023-05-08T00:25:56.679Z,100.00
2023-05-08T00:27:59.517Z,100.00
2023-05-08T00:30:02.293Z,100.00
2023-05-08T00:32:06.912Z,100.00
2023-05-08T00:34:09.833Z,100.00
2023-05-08T00:36:12.649Z,100.00
2023-05-08T00:38:15.666Z,100.00
2023-05-08T00:40:18.407Z,100.00
2023-05-08T00:42:21.247Z,100.00
2023-05-08T00:44:23.963Z,100.00
2023-05-08T00:46:27.336Z,100.00
2023-05-08T00:48:35.061Z,100.00
2023-05-08T00:50:37.900Z,100.00
2023-05-08T00:52:41.345Z,100.00
2023-05-08T00:54:44.684Z,100.00
2023-05-08T00:56:48.071Z,100.00
2023-05-08T00:58:52.271Z,100.00
2023-05-08T01:00:57.322Z,100.00
2023-05-08T01:03:01.681Z,100.00
2023-05-08T01:05:07.659Z,100.00
2023-05-08T01:07:11.453Z,100.00
2023-05-08T01:09:14.189Z,100.00
2023-05-08T01:11:24.646Z,100.00
2023-05-08T01:13:37.830Z,100.00
2023-05-08T01:15:48.460Z,100.00
2023-05-08T01:18:02.042Z,100.00
2023-05-08T01:20:25.527Z,100.00
2023-05-08T01:22:55.788Z,100.00
2023-05-08T01:25:30.625Z,100.00
2023-05-08T01:27:50.996Z,100.00
2023-05-08T01:30:30.483Z,100.00
2023-05-08T01:32:38.117Z,100.00
2023-05-08T01:34:47.633Z,100.00
2023-05-08T01:36:55.772Z,100.00
2023-05-08T01:39:11.058Z,100.00
2023-05-08T01:41:18.113Z,100.00
2023-05-08T01:43:27.555Z,100.00
2023-05-08T01:45:34.105Z,100.00
2023-05-08T01:47:42.459Z,100.00
2023-05-08T01:49:49.050Z,100.00
2023-05-08T01:52:00.121Z,100.00
2023-05-08T01:54:10.013Z,100.00
2023-05-08T01:56:28.223Z,100.00
2023-05-08T01:58:33.310Z,100.00
2023-05-08T02:00:36.834Z,100.00
2023-05-08T02:02:41.813Z,100.00
2023-05-08T02:04:45.807Z,100.00
2023-05-08T02:06:48.743Z,100.00
2023-05-08T02:08:54.321Z,100.00
2023-05-08T02:10:58.762Z,100.00
2023-05-08T02:13:03.485Z,100.00
2023-05-08T02:15:09.123Z,100.00
2023-05-08T02:17:13.597Z,100.00
2023-05-08T02:19:19.323Z,100.00
2023-05-08T02:21:23.489Z,100.00
2023-05-08T02:23:27.580Z,100.00
2023-05-08T02:25:32.117Z,100.00
2023-05-08T02:27:35.680Z,100.00
2023-05-08T02:29:39.006Z,100.00
2023-05-08T02:31:43.086Z,100.00
2023-05-08T02:33:46.735Z,100.00
2023-05-08T02:35:52.438Z,100.00
2023-05-08T02:37:57.229Z,100.00
2023-05-08T02:40:00.344Z,100.00
2023-05-08T02:42:03.970Z,100.00
2023-05-08T02:44:07.209Z,100.00
2023-05-08T02:46:13.549Z,100.00
2023-05-08T02:48:23.832Z,100.00
2023-05-08T02:50:36.292Z,100.00
2023-05-08T02:52:45.789Z,100.00
2023-05-08T02:54:59.414Z,100.00
2023-05-08T02:57:07.721Z,100.00
2023-05-08T02:59:19.980Z,100.00
2023-05-08T03:01:29.001Z,100.00
2023-05-08T03:03:38.003Z,100.00
2023-05-08T03:05:45.694Z,100.00
2023-05-08T03:07:53.837Z,100.00
2023-05-08T03:10:00.202Z,100.00
2023-05-08T03:12:08.953Z,100.00
2023-05-08T03:14:17.082Z,100.00
2023-05-08T03:16:25.492Z,100.00
2023-05-08T03:18:37.734Z,100.00
2023-05-08T03:20:45.536Z,100.00
2023-05-08T03:22:51.874Z,100.00
2023-05-08T03:24:55.798Z,100.00
2023-05-08T03:27:00.295Z,100.00
2023-05-08T03:29:04.513Z,100.00
2023-05-08T03:31:09.833Z,100.00
2023-05-08T03:33:14.086Z,100.00
2023-05-08T03:35:17.622Z,100.00
2023-05-08T03:37:20.925Z,100.00
2023-05-08T03:39:26.737Z,100.00
2023-05-08T03:41:30.949Z,100.00
2023-05-08T03:43:35.065Z,100.00
2023-05-08T03:45:39.296Z,100.00
2023-05-08T03:47:44.385Z,100.00
2023-05-08T03:49:48.418Z,100.00
2023-05-08T03:51:51.900Z,100.00
2023-05-08T03:53:54.697Z,100.00
2023-05-08T03:56:00.191Z,100.00
2023-05-08T03:58:16.145Z,100.00
2023-05-08T04:00:26.370Z,100.00
2023-05-08T04:02:38.787Z,100.00
2023-05-08T04:04:46.515Z,100.00
2023-05-08T04:07:00.600Z,100.00
2023-05-08T04:09:14.340Z,100.00
2023-05-08T04:11:26.795Z,100.00
2023-05-08T04:13:33.416Z,100.00
2023-05-08T04:15:40.399Z,100.00
2023-05-08T04:17:46.537Z,100.00
2023-05-08T04:19:57.003Z,100.00
2023-05-08T04:22:09.709Z,100.00
2023-05-08T04:24:16.021Z,100.00
2023-05-08T04:26:22.400Z,100.00
2023-05-08T04:28:26.996Z,100.00
2023-05-08T04:30:30.846Z,100.00
2023-05-08T04:32:35.106Z,100.00
2023-05-08T04:34:38.160Z,100.00
2023-05-08T04:36:41.440Z,100.00
2023-05-08T04:38:44.868Z,100.00
2023-05-08T04:40:48.480Z,100.00
2023-05-08T04:42:53.044Z,100.00
2023-05-08T04:44:57.327Z,100.00
2023-05-08T04:47:00.187Z,100.00
2023-05-08T04:49:02.951Z,100.00
2023-05-08T04:51:07.088Z,100.00
2023-05-08T04:53:09.846Z,100.00
2023-05-08T04:55:13.278Z,100.00
2023-05-08T04:57:16.288Z,100.00
2023-05-08T04:59:20.499Z,100.00
2023-05-08T05:01:23.387Z,100.00
2023-05-08T05:03:26.216Z,100.00
2023-05-08T05:05:29.015Z,100.00
2023-05-08T05:07:31.914Z,100.00
2023-05-08T05:09:36.983Z,100.00
2023-05-08T05:11:40.399Z,100.00
2023-05-08T05:13:43.223Z,100.00
2023-05-08T05:15:47.554Z,100.00
2023-05-08T05:17:51.411Z,100.00
2023-05-08T05:19:54.201Z,100.00
2023-05-08T05:21:57.450Z,100.00
2023-05-08T05:24:00.911Z,100.00
2023-05-08T05:26:03.756Z,100.00
2023-05-08T05:28:07.171Z,100.00
2023-05-08T05:30:10.651Z,100.00
2023-05-08T05:32:15.245Z,100.00
2023-05-08T05:34:18.503Z,100.00
2023-05-08T05:36:21.374Z,100.00
2023-05-08T05:38:24.394Z,100.00
2023-05-08T05:40:27.257Z,100.00
2023-05-08T05:42:30.164Z,100.00
2023-05-08T05:44:32.961Z,100.00
2023-05-08T05:46:35.935Z,100.00
2023-05-08T05:48:41.020Z,100.00
2023-05-08T05:50:45.462Z,100.00
2023-05-08T05:52:49.387Z,100.00
2023-05-08T05:54:52.703Z,100.00
2023-05-08T05:56:55.960Z,100.00
2023-05-08T05:58:58.688Z,100.00
2023-05-08T06:01:02.264Z,100.00
2023-05-08T06:03:06.459Z,100.00
2023-05-08T06:05:11.558Z,100.00
2023-05-08T06:07:14.676Z,100.00
2023-05-08T06:09:17.538Z,100.00
2023-05-08T06:11:20.516Z,100.00
2023-05-08T06:13:23.366Z,100.00
2023-05-08T06:15:27.033Z,100.00
2023-05-08T06:17:30.477Z,100.00
2023-05-08T06:19:33.202Z,100.00
2023-05-08T06:21:37.386Z,100.00
2023-05-08T06:23:40.106Z,100.00
2023-05-08T06:25:42.836Z,100.00
2023-05-08T06:27:45.594Z,100.00
2023-05-08T06:29:48.429Z,100.00
2023-05-08T06:31:51.133Z,100.00
2023-05-08T06:33:53.856Z,100.00
2023-05-08T06:35:56.841Z,100.00
2023-05-08T06:38:01.405Z,100.00
2023-05-08T06:40:12.057Z,100.00
2023-05-08T06:42:15.589Z,100.00
2023-05-08T06:44:21.593Z,100.00
2023-05-08T06:46:24.647Z,100.00
2023-05-08T06:48:29.091Z,100.00
2023-05-08T06:50:32.203Z,100.00
2023-05-08T06:52:34.965Z,100.00
2023-05-08T06:54:39.149Z,100.00
2023-05-08T06:56:41.901Z,100.00
2023-05-08T06:58:48.431Z,100.00
2023-05-08T07:01:00.806Z,100.00
2023-05-08T07:03:03.997Z,100.00
2023-05-08T07:05:07.957Z,100.00
2023-05-08T07:07:11.590Z,100.00
2023-05-08T07:09:14.473Z,100.00
2023-05-08T07:11:18.568Z,100.00
2023-05-08T07:13:22.088Z,100.00
2023-05-08T07:15:26.345Z,100.00
2023-05-08T07:17:30.780Z,100.00
2023-05-08T07:19:33.938Z,100.00
2023-05-08T07:21:36.823Z,100.00
2023-05-08T07:23:39.532Z,100.00
2023-05-08T07:25:42.232Z,100.00
2023-05-08T07:27:46.387Z,100.00
2023-05-08T07:29:49.068Z,100.00
2023-05-08T07:31:52.166Z,100.00
2023-05-08T07:33:54.982Z,100.00
2023-05-08T07:35:58.171Z,100.00
2023-05-08T07:38:00.953Z,100.00
2023-05-08T07:40:03.832Z,100.00
2023-05-08T07:42:06.762Z,100.00
2023-05-08T07:44:10.857Z,100.00
2023-05-08T07:46:18.489Z,100.00
2023-05-08T07:48:21.276Z,100.00
2023-05-08T07:50:25.602Z,100.00
2023-05-08T07:52:28.520Z,100.00
2023-05-08T07:54:31.277Z,100.00
2023-05-08T07:56:34.122Z,100.00
2023-05-08T07:58:36.900Z,100.00
2023-05-08T08:00:41.148Z,100.00
2023-05-08T08:02:44.618Z,100.00
2023-05-08T08:04:47.645Z,100.00
2023-05-08T08:06:50.608Z,100.00
2023-05-08T08:08:53.312Z,100.00
2023-05-08T08:10:56.049Z,100.00
2023-05-08T08:13:01.527Z,100.00
2023-05-08T08:15:04.717Z,100.00
2023-05-08T08:17:08.932Z,100.00
2023-05-08T08:19:11.736Z,100.00
2023-05-08T08:21:14.502Z,100.00
2023-05-08T08:23:17.294Z,100.00
2023-05-08T08:25:20.879Z,100.00
2023-05-08T08:27:24.088Z,100.00
2023-05-08T08:29:27.012Z,100.00
2023-05-08T08:31:29.770Z,100.00
2023-05-08T08:33:33.908Z,100.00
2023-05-08T08:35:36.709Z,100.00
2023-05-08T08:37:39.515Z,100.00
2023-05-08T08:39:42.267Z,100.00
2023-05-08T08:41:45.048Z,100.00
2023-05-08T08:43:47.829Z,100.00
2023-05-08T08:45:50.600Z,100.00
2023-05-08T08:47:53.897Z,100.00
2023-05-08T08:50:01.752Z,100.00
2023-05-08T08:52:11.923Z,100.00
2023-05-08T08:54:18.450Z,100.00
2023-05-08T08:56:24.636Z,100.00
2023-05-08T08:58:32.631Z,100.00
2023-05-08T09:00:38.352Z,100.00
2023-05-08T09:02:41.315Z,100.00
2023-05-08T09:04:44.723Z,100.00
2023-05-08T09:06:50.760Z,100.00
2023-05-08T09:08:56.297Z,100.00
2023-05-08T09:10:59.386Z,100.00
2023-05-08T09:13:02.209Z,100.00
2023-05-08T09:15:06.773Z,100.00
2023-05-08T09:17:10.446Z,100.00
2023-05-08T09:19:15.863Z,100.00
2023-05-08T09:21:22.159Z,100.00
2023-05-08T09:23:26.358Z,100.00
2023-05-08T09:25:42.547Z,100.00
2023-05-08T09:27:47.953Z,100.00
2023-05-08T09:30:02.908Z,100.00
2023-05-08T09:32:06.165Z,100.00
2023-05-08T09:34:09.566Z,100.00
2023-05-08T09:36:26.682Z,100.00
2023-05-08T09:38:38.189Z,100.00
2023-05-08T09:40:40.946Z,100.00
2023-05-08T09:42:43.900Z,100.00
2023-05-08T09:44:49.403Z,100.00
2023-05-08T09:46:52.172Z,100.00
2023-05-08T09:48:56.436Z,100.00
2023-05-08T09:51:06.806Z,100.00
2023-05-08T09:53:09.557Z,100.00
2023-05-08T09:55:13.775Z,100.00
2023-05-08T09:57:17.008Z,100.00
2023-05-08T09:59:27.842Z,100.00
2023-05-08T10:01:33.004Z,100.00
2023-05-08T10:03:48.076Z,100.00
2023-05-08T10:05:50.865Z,100.00
2023-05-08T10:07:53.755Z,100.00
2023-05-08T10:10:01.486Z,100.00
2023-05-08T10:12:06.909Z,100.00
2023-05-08T10:14:10.112Z,100.00
2023-05-08T10:16:17.105Z,100.00
2023-05-08T10:18:23.117Z,100.00
2023-05-08T10:20:29.500Z,100.00
2023-05-08T10:22:37.343Z,100.00
2023-05-08T10:24:42.039Z,100.00
2023-05-08T10:27:05.549Z,100.00
2023-05-08T10:29:18.097Z,100.00
2023-05-08T10:31:25.692Z,100.00
2023-05-08T10:33:32.405Z,100.00
2023-05-08T10:35:35.375Z,100.00
2023-05-08T10:37:39.489Z,100.00
2023-05-08T10:39:43.907Z,100.00
2023-05-08T10:41:48.039Z,100.00
2023-05-08T10:43:51.701Z,100.00
2023-05-08T10:45:57.472Z,100.00
2023-05-08T10:48:06.135Z,100.00
2023-05-08T10:50:20.236Z,100.00
2023-05-08T10:52:31.059Z,100.00
2023-05-08T10:54:46.251Z,100.00
2023-05-08T10:56:50.155Z,100.00
2023-05-08T10:58:57.079Z,100.00
2023-05-08T11:01:15.109Z,100.00
2023-05-08T11:03:30.453Z,100.00
2023-05-08T11:05:47.372Z,100.00
2023-05-08T11:07:57.419Z,100.00
2023-05-08T11:10:08.794Z,100.00
2023-05-08T11:12:23.920Z,100.00
2023-05-08T11:14:27.932Z,100.00
2023-05-08T11:17:02.899Z,100.00
2023-05-08T11:19:26.100Z,100.00
2023-05-08T11:21:28.740Z,100.00
2023-05-08T11:23:32.235Z,100.00
2023-05-08T11:25:43.428Z,100.00
2023-05-08T11:28:13.837Z,100.00
2023-05-08T11:30:20.777Z,100.00
2023-05-08T11:32:26.214Z,100.00
2023-05-08T11:34:49.849Z,100.00
2023-05-08T11:37:02.784Z,100.00
2023-05-08T11:39:12.624Z,100.00
2023-05-08T11:41:22.586Z,100.00
2023-05-08T11:43:27.142Z,100.00
2023-05-08T11:45:30.724Z,100.00
2023-05-08T11:47:39.147Z,100.00
2023-05-08T11:49:42.038Z,100.00
2023-05-08T11:51:48.174Z,100.00
2023-05-08T11:53:51.510Z,100.00
2023-05-08T11:55:54.792Z,100.00
2023-05-08T11:57:57.605Z,100.00
2023-05-08T12:00:05.046Z,100.00
2023-05-08T12:02:11.521Z,100.00
2023-05-08T12:04:14.580Z,100.00
2023-05-08T12:06:20.000Z,100.00
2023-05-08T12:08:24.197Z,100.00
2023-05-08T12:10:26.980Z,100.00
2023-05-08T12:12:39.262Z,100.00
2023-05-08T12:14:42.027Z,100.00
2023-05-08T12:16:44.819Z,100.00
2023-05-08T12:18:50.321Z,100.00
2023-05-08T12:20:54.087Z,100.00
2023-05-08T12:22:56.922Z,100.00
2023-05-08T12:25:01.030Z,100.00
2023-05-08T12:27:04.765Z,100.00
2023-05-08T12:29:08.628Z,100.00
2023-05-08T12:31:12.314Z,100.00
2023-05-08T12:33:16.132Z,100.00
2023-05-08T12:35:19.096Z,100.00
2023-05-08T12:37:27.684Z,100.00
2023-05-08T12:39:35.609Z,100.00
2023-05-08T12:41:47.648Z,98.22
2023-05-08T12:43:50.381Z,96.96
2023-05-08T12:45:53.412Z,97.28
2023-05-08T12:48:00.374Z,96.10
2023-05-08T12:50:03.224Z,95.81
2023-05-08T12:52:07.539Z,91.71
2023-05-08T12:54:10.309Z,92.26
2023-05-08T12:56:13.061Z,92.00
2023-05-08T12:58:17.944Z,91.86
2023-05-08T13:00:21.156Z,86.21
2023-05-08T13:02:26.360Z,83.71
2023-05-08T13:04:30.395Z,86.00
2023-05-08T13:06:33.286Z,94.81
2023-05-08T13:08:37.953Z,100.00
2023-05-08T13:10:49.098Z,100.00
2023-05-08T13:12:52.252Z,100.00
2023-05-08T13:14:56.500Z,100.00
2023-05-08T13:16:59.780Z,100.00
2023-05-08T13:19:02.668Z,100.00
2023-05-08T13:21:05.791Z,100.00
2023-05-08T13:23:08.564Z,100.00
2023-05-08T13:25:11.446Z,99.38
2023-05-08T13:27:14.703Z,92.57
2023-05-08T13:29:17.559Z,91.25
2023-05-08T13:31:21.659Z,90.95
2023-05-08T13:33:24.461Z,84.77
2023-05-08T13:35:28.398Z,82.15
2023-05-08T13:37:31.452Z,75.47
2023-05-08T13:39:37.757Z,75.44
2023-05-08T13:41:40.491Z,78.19
2023-05-08T13:43:43.445Z,83.29
2023-05-08T13:45:46.196Z,92.20
2023-05-08T13:47:51.290Z,93.81
2023-05-08T13:49:54.170Z,90.16
2023-05-08T13:51:57.317Z,92.89
2023-05-08T13:54:00.209Z,93.99
2023-05-08T13:56:03.098Z,92.77
2023-05-08T13:58:05.918Z,96.60
2023-05-08T14:00:10.265Z,94.41
2023-05-08T14:02:13.287Z,94.62
2023-05-08T14:04:19.131Z,97.19
2023-05-08T14:06:21.909Z,94.03
2023-05-08T14:08:24.726Z,95.33
2023-05-08T14:10:27.494Z,96.34
2023-05-08T14:12:30.389Z,98.21
2023-05-08T14:14:34.498Z,100.00
2023-05-08T14:16:37.612Z,100.00
2023-05-08T14:18:40.393Z,100.00
2023-05-08T14:20:49.001Z,100.00
2023-05-08T14:22:54.428Z,100.00
2023-05-08T14:24:57.113Z,100.00
2023-05-08T14:27:01.931Z,100.00
2023-05-08T14:29:04.935Z,100.00
2023-05-08T14:31:07.820Z,100.00
2023-05-08T14:33:10.642Z,100.00
2023-05-08T14:35:14.122Z,100.00
2023-05-08T14:37:18.859Z,100.00
2023-05-08T14:39:21.640Z,100.00
2023-05-08T14:41:28.318Z,100.00
2023-05-08T14:43:31.020Z,100.00
2023-05-08T14:45:33.747Z,100.00
2023-05-08T14:47:36.550Z,100.00
2023-05-08T14:49:39.231Z,100.00
2023-05-08T14:51:41.898Z,100.00
2023-05-08T14:53:46.067Z,100.00
2023-05-08T14:55:48.896Z,100.00
2023-05-08T14:57:52.004Z,100.00
2023-05-08T14:59:56.160Z,100.00
2023-05-08T15:01:58.908Z,100.00
2023-05-08T15:04:01.796Z,100.00
2023-05-08T15:06:05.641Z,100.00
2023-05-08T15:08:09.591Z,100.00
2023-05-08T15:10:14.474Z,100.00
2023-05-08T15:12:17.194Z,100.00
2023-05-08T15:14:19.895Z,100.00
2023-05-08T15:16:22.614Z,100.00
2023-05-08T15:18:28.380Z,100.00
2023-05-08T15:20:31.149Z,100.00
2023-05-08T15:22:33.905Z,100.00
2023-05-08T15:24:36.713Z,100.00
2023-05-08T15:26:40.776Z,100.00
2023-05-08T15:28:43.498Z,100.00
2023-05-08T15:30:46.818Z,100.00
2023-05-08T15:32:49.714Z,100.00
2023-05-08T15:34:52.560Z,100.00
2023-05-08T15:36:55.976Z,100.00
2023-05-08T15:38:58.804Z,100.00
2023-05-08T15:41:01.579Z,100.00
2023-05-08T15:43:05.682Z,100.00
2023-05-08T15:45:09.578Z,100.00
2023-05-08T15:47:12.284Z,100.00
2023-05-08T15:49:14.999Z,100.00
2023-05-08T15:51:17.846Z,100.00
2023-05-08T15:53:20.568Z,100.00
2023-05-08T15:55:23.579Z,100.00
2023-05-08T15:57:27.071Z,100.00
2023-05-08T15:59:31.198Z,100.00
2023-05-08T16:01:34.008Z,100.00
2023-05-08T16:03:36.959Z,100.00
2023-05-08T16:05:40.086Z,100.00
2023-05-08T16:07:43.745Z,100.00
2023-05-08T16:09:46.602Z,100.00
2023-05-08T16:11:49.404Z,100.00
2023-05-08T16:13:52.272Z,100.00
2023-05-08T16:15:56.402Z,100.00
2023-05-08T16:17:59.227Z,100.00
2023-05-08T16:20:03.762Z,100.00
2023-05-08T16:22:06.901Z,100.00
2023-05-08T16:24:09.758Z,100.00
2023-05-08T16:26:13.971Z,100.00
2023-05-08T16:28:16.690Z,100.00
2023-05-08T16:30:19.768Z,100.00
2023-05-08T16:32:23.838Z,100.00
2023-05-08T16:34:26.537Z,100.00
2023-05-08T16:36:29.290Z,100.00
2023-05-08T16:38:32.057Z,100.00
2023-05-08T16:40:34.877Z,100.00
2023-05-08T16:42:37.983Z,100.00
2023-05-08T16:44:40.700Z,100.00
2023-05-08T16:46:43.494Z,100.00
2023-05-08T16:48:48.311Z,100.00
2023-05-08T16:50:51.295Z,100.00
2023-05-08T16:52:54.050Z,100.00
2023-05-08T16:54:56.732Z,100.00
2023-05-08T16:56:59.533Z,100.00
2023-05-08T16:59:05.991Z,100.00
2023-05-08T17:01:08.726Z,100.00
2023-05-08T17:03:11.549Z,100.00
2023-05-08T17:05:15.755Z,100.00
2023-05-08T17:07:19.121Z,100.00
2023-05-08T17:09:21.836Z,100.00
2023-05-08T17:11:24.517Z,100.00
2023-05-08T17:13:27.306Z,100.00
2023-05-08T17:15:30.389Z,100.00
2023-05-08T17:17:33.144Z,100.00
2023-05-08T17:19:36.209Z,100.00
2023-05-08T17:21:40.257Z,100.00
2023-05-08T17:23:42.938Z,100.00
2023-05-08T17:25:45.612Z,100.00
2023-05-08T17:27:48.272Z,100.00
2023-05-08T17:29:50.995Z,100.00
2023-05-08T17:31:53.703Z,100.00
2023-05-08T17:33:56.396Z,100.00
2023-05-08T17:35:59.064Z,100.00
2023-05-08T17:38:03.046Z,100.00
2023-05-08T17:40:06.758Z,100.00
2023-05-08T17:42:09.759Z,100.00
2023-05-08T17:44:12.563Z,100.00
2023-05-08T17:46:15.485Z,100.00
2023-05-08T17:48:18.382Z,100.00
2023-05-08T17:50:21.320Z,100.00
2023-05-08T17:52:23.992Z,100.00
2023-05-08T17:54:28.087Z,100.00
2023-05-08T17:56:31.872Z,100.00
2023-05-08T17:58:34.722Z,100.00
2023-05-08T18:00:37.624Z,100.00
2023-05-08T18:02:40.487Z,100.00
2023-05-08T18:04:43.235Z,100.00
2023-05-08T18:06:47.712Z,100.00
2023-05-08T18:08:50.489Z,100.00
2023-05-08T18:10:54.554Z,100.00
2023-05-08T18:12:57.317Z,100.00
2023-05-08T18:15:00.846Z,100.00
2023-05-08T18:17:03.716Z,100.00
2023-05-08T18:19:06.481Z,100.00
2023-05-08T18:21:09.328Z,100.00
2023-05-08T18:23:12.090Z,100.00
2023-05-08T18:25:14.856Z,100.00
2023-05-08T18:27:18.895Z,100.00
2023-05-08T18:29:21.736Z,100.00
2023-05-08T18:31:24.502Z,100.00
2023-05-08T18:33:27.220Z,100.00
2023-05-08T18:35:29.961Z,100.00
2023-05-08T18:37:32.729Z,100.00
2023-05-08T18:39:35.454Z,100.00
2023-05-08T18:41:38.245Z,100.00
2023-05-08T18:43:42.375Z,100.00
2023-05-08T18:45:45.145Z,100.00
2023-05-08T18:47:48.097Z,100.00
2023-05-08T18:49:51.761Z,100.00
2023-05-08T18:51:54.430Z,100.00
2023-05-08T18:53:57.292Z,100.00
2023-05-08T18:56:03.008Z,100.00
2023-05-08T18:58:06.419Z,100.00
2023-05-08T19:00:11.827Z,100.00
2023-05-08T19:02:14.618Z,100.00
2023-05-08T19:04:17.525Z,100.00
2023-05-08T19:06:20.369Z,100.00
2023-05-08T19:08:23.198Z,100.00
2023-05-08T19:10:25.920Z,100.00
2023-05-08T19:12:28.739Z,100.00
2023-05-08T19:14:31.491Z,100.00
2023-05-08T19:16:35.600Z,100.00
2023-05-08T19:18:38.319Z,100.00
2023-05-08T19:20:41.010Z,100.00
2023-05-08T19:22:43.685Z,100.00
2023-05-08T19:24:46.472Z,100.00
2023-05-08T19:26:49.117Z,100.00
2023-05-08T19:28:51.776Z,100.00
2023-05-08T19:30:54.444Z,100.00
2023-05-08T19:32:58.531Z,100.00
2023-05-08T19:35:02.580Z,100.00
2023-05-08T19:37:06.269Z,100.00
2023-05-08T19:39:09.159Z,100.00
2023-05-08T19:41:12.601Z,100.00
2023-05-08T19:43:15.601Z,100.00
2023-05-08T19:45:18.349Z,100.00
2023-05-08T19:47:21.200Z,100.00
2023-05-08T19:49:25.359Z,100.00
2023-05-08T19:51:28.162Z,100.00
2023-05-08T19:53:30.820Z,100.00
2023-05-08T19:55:33.471Z,100.00
2023-05-08T19:57:36.238Z,100.00
2023-05-08T19:59:39.030Z,100.00
2023-05-08T20:01:43.441Z,100.00
2023-05-08T20:03:46.479Z,100.00
2023-05-08T20:05:51.781Z,100.00
2023-05-08T20:07:55.625Z,100.00
2023-05-08T20:09:58.422Z,100.00
2023-05-08T20:12:01.257Z,100.00
2023-05-08T20:14:04.076Z,100.00
2023-05-08T20:16:07.294Z,100.00
2023-05-08T20:18:10.260Z,100.00
2023-05-08T20:20:13.954Z,100.00
2023-05-08T20:22:18.212Z,100.00
2023-05-08T20:24:20.907Z,100.00
2023-05-08T20:26:23.693Z,100.00
2023-05-08T20:28:26.456Z,100.00
2023-05-08T20:30:29.211Z,100.00
2023-05-08T20:32:32.007Z,100.00
2023-05-08T20:34:34.781Z,100.00
2023-05-08T20:36:37.559Z,100.00
2023-05-08T20:38:41.638Z,100.00
2023-05-08T20:40:44.352Z,100.00
2023-05-08T20:42:47.112Z,100.00
2023-05-08T20:44:49.841Z,100.00
2023-05-08T20:46:52.582Z,100.00
2023-05-08T20:48:55.314Z,100.00
2023-05-08T20:50:57.992Z,100.00
2023-05-08T20:53:00.702Z,100.00
2023-05-08T20:55:05.478Z,100.00
2023-05-08T20:57:08.233Z,100.00
2023-05-08T20:59:11.411Z,100.00
2023-05-08T21:01:14.180Z,100.00
2023-05-08T21:03:16.952Z,100.00
2023-05-08T21:05:19.844Z,100.00
2023-05-08T21:07:22.573Z,100.00
2023-05-08T21:09:25.509Z,100.00
2023-05-08T21:11:29.830Z,100.00
2023-05-08T21:13:32.532Z,100.00
2023-05-08T21:15:35.288Z,100.00
2023-05-08T21:17:38.050Z,100.00
2023-05-08T21:19:40.864Z,100.00
2023-05-08T21:21:43.606Z,100.00
2023-05-08T21:23:46.517Z,100.00
2023-05-08T21:25:50.655Z,100.00
2023-05-08T21:27:55.473Z,100.00
2023-05-08T21:29:58.379Z,100.00
2023-05-08T21:32:01.160Z,100.00
2023-05-08T21:34:04.199Z,100.00
2023-05-08T21:36:07.290Z,100.00
2023-05-08T21:38:11.996Z,100.00
2023-05-08T21:40:14.887Z,100.00
2023-05-08T21:42:17.605Z,100.00
2023-05-08T21:44:21.613Z,100.00
2023-05-08T21:46:24.332Z,100.00
2023-05-08T21:48:27.122Z,100.00
2023-05-08T21:50:29.869Z,100.00
2023-05-08T21:52:32.618Z,100.00
2023-05-08T21:54:35.405Z,100.00
2023-05-08T21:56:38.258Z,100.00
2023-05-08T21:58:41.064Z,100.00
2023-05-08T22:00:45.163Z,100.00
2023-05-08T22:02:48.229Z,100.00
2023-05-08T22:04:51.109Z,100.00
2023-05-08T22:06:53.839Z,100.00
2023-05-08T22:08:56.639Z,100.00
2023-05-08T22:10:59.340Z,100.00
2023-05-08T22:13:02.166Z,100.00
2023-05-08T22:15:09.458Z,100.00
2023-05-08T22:17:19.086Z,100.00
2023-05-08T22:19:21.796Z,100.00
2023-05-08T22:21:24.522Z,100.00
2023-05-08T22:23:27.200Z,100.00
2023-05-08T22:25:29.974Z,100.00
2023-05-08T22:27:32.705Z,100.00
2023-05-08T22:29:35.423Z,100.00
2023-05-08T22:31:38.160Z,100.00
2023-05-08T22:33:42.199Z,100.00
2023-05-08T22:35:44.832Z,100.00
2023-05-08T22:37:47.525Z,100.00
2023-05-08T22:39:50.509Z,100.00
2023-05-08T22:41:53.218Z,100.00
2023-05-08T22:43:56.969Z,100.00
2023-05-08T22:46:00.478Z,100.00
2023-05-08T22:48:04.425Z,100.00
2023-05-08T22:50:11.574Z,100.00
2023-05-08T22:52:14.206Z,100.00
2023-05-08T22:54:16.911Z,100.00
2023-05-08T22:56:19.528Z,100.00
2023-05-08T22:58:22.235Z,100.00
2023-05-08T23:00:25.076Z,100.00
2023-05-08T23:02:32.784Z,100.00
2023-05-08T23:04:35.611Z,100.00
2023-05-08T23:06:39.702Z,100.00
2023-05-08T23:08:42.381Z,100.00
2023-05-08T23:10:45.316Z,100.00
2023-05-08T23:12:48.019Z,100.00
2023-05-08T23:14:50.734Z,100.00
2023-05-08T23:16:53.406Z,100.00
2023-05-08T23:18:56.350Z,100.00
2023-05-08T23:20:59.125Z,100.00
2023-05-08T23:23:03.110Z,100.00
2023-05-08T23:25:06.896Z,100.00
2023-05-08T23:27:09.569Z,100.00
2023-05-08T23:29:12.139Z,100.00
2023-05-08T23:31:14.865Z,100.00
2023-05-08T23:33:18.965Z,100.00
2023-05-08T23:35:21.698Z,100.00
2023-05-08T23:37:24.646Z,100.00
2023-05-08T23:39:28.770Z,100.00
2023-05-08T23:41:32.310Z,100.00
2023-05-08T23:43:35.003Z,100.00
2023-05-08T23:45:37.736Z,100.00
2023-05-08T23:47:40.548Z,100.00
2023-05-08T23:49:43.301Z,100.00
2023-05-08T23:51:46.227Z,100.00
2023-05-08T23:53:49.991Z,100.00
2023-05-08T23:55:54.040Z,100.00
2023-05-08T23:57:57.506Z,100.00
